Dodgeville, MI (49921)

2:40 AM EDT on October 02, 2014 (GMT -0400)
Hancock: Sylvan Estates | Change Station
CLOSE
Current Station
Personal Weather Station
Location: Hancock, MI
Elevation: 279 m
Nearby Weather Stations

Elev 279 m 47.14 °N, 88.60 °W | Updated 36 seconds ago

Overcast
Overcast
13.4 °C
Feels Like 13.4 °C
N
0.0
Wind Variable Wind from SW
Gusts 9.7 km/h

Today
High -- | Low -- °C
--% Chance of Precip.
Yesterday
High -- | Low -- °C
Precip. -- mm
7:54 AM 7:31 PM
First Quarter, 55% visible
Pressure 1011 hPa
Visibility 16.1 kilometers
Clouds Few 579 m
Overcast 1219 m
Dew Point 12 °C
Humidity 91%
Rainfall 0 mm
Snow Depth Not available.
UV 0 out of 12
Pollen .30 out of 12
Air Quality Not available.
Flu Activity Not available.
METAR KCMX 020553Z AUTO 21005KT 10SM FEW019 OVC040 13/10 A2985 RMK AO2 SLP110 60001 T01280100 10128 20122 50000

More Conditions Fewer Conditions

Pressure 1011 hPa
Visibility 16.1 kilometers
Clouds Few 579 m
Overcast 1219 m
Dew Point 12 °C
Humidity 91%
Rainfall 0 mm
Snow Depth Not available.
UV 0 out of 12
Pollen .30 out of 12
Air Quality Not available.
Flu Activity Not available.
METAR KCMX 020553Z AUTO 21005KT 10SM FEW019 OVC040 13/10 A2985 RMK AO2 SLP110 60001 T01280100 10128 20122 50000

More Conditions Fewer Conditions

10-Day Weather Forecast

Almanac

Astronomy

Oct. 02, 2014 Rise Set
Actual Time 7:54 AM EDT 7:31 PM EDT
Civil Twilight 7:24 AM EDT 8:02 PM EDT
Nautical Twilight 6:48 AM EDT 8:37 PM EDT
Astronomical Twilight 6:12 AM EDT 9:13 PM EDT
Moon 3:58 PM EDT 12:49 AM EDT
Length of Visible Light 12h 38m
Length of Day
11h 37m
Tomorrow will be 3m 20s shorter.
First Quarter, 55% of the Moon is Illuminated
Today
First Quarter
Oct 8
Full
Oct 15
Last Quarter
Oct 23
New
Oct 30
First Quarter

Today's Extremes

State Highs State Lows

Community

WunderPhotos

Upload Photos

1,758,198 photos uploaded!

WunderBlogs® & News

Nearby

Snow Depth

Station Depth Elevation
No new snow has been reported.

Earthquake Activity

City Distance Mag. Time & Date
No recent earthquake activity has been reported nearby.
Minimum magnitude displayed is 2.5.

Coastal Water Temperatures

Place Temperature
No Stations Reporting

Nearby Weather Stations